createdAt,value
2023-01-19T00:01:41.091Z,24.00
2023-01-19T00:03:44.056Z,35.45
2023-01-19T00:05:47.145Z,28.30
2023-01-19T00:07:50.165Z,32.35
2023-01-19T00:09:53.203Z,28.58
2023-01-19T00:11:56.207Z,26.48
2023-01-19T00:14:00.710Z,29.98
2023-01-19T00:16:03.798Z,24.30
2023-01-19T00:18:07.637Z,24.95
2023-01-19T00:20:13.636Z,19.77
2023-01-19T00:22:16.616Z,21.58
2023-01-19T00:24:19.600Z,23.88
2023-01-19T00:26:23.116Z,19.05
2023-01-19T00:28:26.162Z,23.67
2023-01-19T00:30:30.841Z,20.35
2023-01-19T00:32:33.983Z,23.75
2023-01-19T00:34:49.382Z,18.73
2023-01-19T00:36:52.376Z,20.50
2023-01-19T00:38:55.373Z,17.20
2023-01-19T00:40:58.350Z,21.55
2023-01-19T00:43:00.724Z,17.95
2023-01-19T00:45:04.273Z,18.83
2023-01-19T00:47:08.691Z,19.38
2023-01-19T00:49:12.107Z,19.30
2023-01-19T00:51:15.145Z,18.45
2023-01-19T00:53:18.266Z,19.35
2023-01-19T00:55:21.411Z,17.83
2023-01-19T00:57:24.712Z,18.27
2023-01-19T00:59:27.727Z,20.13
2023-01-19T01:01:45.591Z,17.48
2023-01-19T01:03:50.740Z,19.05
2023-01-19T01:05:53.751Z,17.67
2023-01-19T01:07:56.806Z,21.17
2023-01-19T01:10:00.032Z,20.17
2023-01-19T01:12:03.035Z,19.88
2023-01-19T01:14:06.041Z,24.83
2023-01-19T01:16:09.967Z,32.42
2023-01-19T01:18:12.968Z,22.42
2023-01-19T01:20:20.133Z,15.57
2023-01-19T01:22:23.175Z,16.92
2023-01-19T01:24:26.285Z,17.33
2023-01-19T01:26:29.537Z,20.60
2023-01-19T01:28:32.772Z,20.85
2023-01-19T01:30:40.072Z,26.25
2023-01-19T01:32:47.019Z,26.20
2023-01-19T01:34:50.034Z,23.75
2023-01-19T01:36:54.867Z,21.08
2023-01-19T01:38:57.863Z,18.70
2023-01-19T01:41:00.904Z,19.80
2023-01-19T01:43:03.964Z,19.50
2023-01-19T01:45:29.846Z,18.90
2023-01-19T01:47:36.061Z,21.13
2023-01-19T01:49:39.043Z,19.63
2023-01-19T01:51:43.763Z,20.55
2023-01-19T01:53:51.168Z,21.02
2023-01-19T01:55:56.388Z,21.40
2023-01-19T01:58:02.787Z,18.15
2023-01-19T02:00:07.442Z,19.58
2023-01-19T02:02:31.739Z,16.15
2023-01-19T02:04:35.216Z,19.13
2023-01-19T02:06:56.249Z,19.30
2023-01-19T02:09:21.523Z,20.50
2023-01-19T02:11:42.137Z,18.25
2023-01-19T02:13:45.280Z,17.10
2023-01-19T02:15:49.656Z,18.33
2023-01-19T02:17:52.849Z,14.82
2023-01-19T02:19:56.239Z,16.33
2023-01-19T02:22:04.557Z,19.42
2023-01-19T02:24:14.704Z,15.95
2023-01-19T02:26:20.076Z,18.45
2023-01-19T02:28:23.067Z,14.93
2023-01-19T02:30:26.313Z,15.88
2023-01-19T02:32:29.619Z,15.27
2023-01-19T02:34:32.776Z,16.65
2023-01-19T02:36:39.043Z,16.60
2023-01-19T02:38:42.959Z,17.42
2023-01-19T02:40:47.890Z,16.98
2023-01-19T02:42:52.129Z,16.77
2023-01-19T02:44:56.641Z,17.33
2023-01-19T02:46:59.703Z,19.73
2023-01-19T02:49:04.930Z,18.17
2023-01-19T02:51:13.646Z,19.17
2023-01-19T02:53:43.871Z,18.58
2023-01-19T02:55:51.795Z,19.75
2023-01-19T02:58:00.520Z,21.38
2023-01-19T03:00:18.847Z,18.55
2023-01-19T03:02:31.998Z,15.95
2023-01-19T03:04:45.237Z,17.05
2023-01-19T03:06:51.141Z,17.42
2023-01-19T03:08:56.976Z,17.48
2023-01-19T03:11:03.243Z,15.80
2023-01-19T03:13:12.381Z,17.30
2023-01-19T03:15:20.496Z,16.40
2023-01-19T03:17:23.606Z,16.98
2023-01-19T03:19:28.932Z,17.50
2023-01-19T03:21:32.630Z,15.88
2023-01-19T03:23:38.188Z,19.00
2023-01-19T03:25:43.964Z,16.98
2023-01-19T03:27:48.826Z,17.00
2023-01-19T03:29:54.058Z,15.55
2023-01-19T03:31:58.523Z,16.27
2023-01-19T03:34:04.439Z,15.82
2023-01-19T03:36:12.124Z,15.30
2023-01-19T03:38:17.859Z,16.88
2023-01-19T03:40:21.122Z,12.90
2023-01-19T03:42:25.268Z,15.20
2023-01-19T03:44:30.831Z,15.38
2023-01-19T03:46:34.435Z,15.30
2023-01-19T03:48:38.003Z,16.55
2023-01-19T03:50:41.068Z,16.80
2023-01-19T03:52:44.339Z,18.67
2023-01-19T03:54:48.188Z,19.00
2023-01-19T03:56:52.475Z,14.20
2023-01-19T03:58:56.344Z,15.73
2023-01-19T04:01:01.462Z,14.43
2023-01-19T04:03:04.931Z,14.73
2023-01-19T04:05:08.788Z,13.68
2023-01-19T04:07:12.314Z,14.77
2023-01-19T04:09:15.272Z,19.80
2023-01-19T04:11:18.573Z,19.85
2023-01-19T04:13:21.678Z,16.27
2023-01-19T04:15:24.637Z,19.48
2023-01-19T04:17:29.021Z,18.55
2023-01-19T04:19:32.085Z,15.55
2023-01-19T04:21:35.242Z,17.08
2023-01-19T04:23:38.227Z,17.30
2023-01-19T04:25:41.241Z,15.38
2023-01-19T04:27:44.174Z,13.05
2023-01-19T04:29:47.280Z,15.40
2023-01-19T04:31:50.290Z,14.05
2023-01-19T04:33:54.666Z,16.30
2023-01-19T04:35:57.740Z,13.38
2023-01-19T04:38:00.893Z,15.88
2023-01-19T04:40:04.433Z,14.18
2023-01-19T04:42:07.691Z,13.68
2023-01-19T04:44:10.954Z,13.02
2023-01-19T04:46:13.949Z,14.50
2023-01-19T04:48:18.503Z,14.25
2023-01-19T04:50:22.841Z,13.50
2023-01-19T04:52:25.825Z,12.23
2023-01-19T04:54:28.938Z,16.40
2023-01-19T04:56:32.050Z,15.00
2023-01-19T04:58:35.085Z,32.25
2023-01-19T05:00:38.276Z,28.85
2023-01-19T05:02:42.691Z,15.32
2023-01-19T05:04:45.629Z,14.27
2023-01-19T05:06:50.016Z,12.70
2023-01-19T05:08:53.147Z,15.32
2023-01-19T05:10:57.516Z,14.50
2023-01-19T05:13:00.837Z,15.57
2023-01-19T05:15:04.657Z,15.45
2023-01-19T05:17:07.695Z,15.82
2023-01-19T05:19:11.287Z,18.42
2023-01-19T05:21:14.523Z,14.95
2023-01-19T05:23:18.908Z,15.77
2023-01-19T05:25:22.036Z,13.45
2023-01-19T05:27:25.274Z,13.35
2023-01-19T05:29:28.482Z,15.90
2023-01-19T05:31:31.807Z,15.10
2023-01-19T05:33:34.837Z,16.20
2023-01-19T05:35:37.822Z,17.30
2023-01-19T05:37:40.996Z,15.85
2023-01-19T05:39:45.390Z,18.60
2023-01-19T05:41:48.433Z,16.08
2023-01-19T05:43:51.409Z,17.67
2023-01-19T05:45:54.445Z,14.82
2023-01-19T05:47:57.563Z,16.27
2023-01-19T05:50:00.612Z,14.88
2023-01-19T05:52:03.612Z,18.73
2023-01-19T05:54:07.240Z,17.13
2023-01-19T05:56:11.871Z,16.52
2023-01-19T05:58:15.031Z,14.57
2023-01-19T06:00:18.506Z,16.23
2023-01-19T06:02:23.169Z,17.85
2023-01-19T06:04:26.369Z,16.52
2023-01-19T06:06:29.312Z,17.13
2023-01-19T06:08:32.389Z,19.77
2023-01-19T06:10:35.413Z,17.50
2023-01-19T06:12:41.917Z,11.88
2023-01-19T06:14:45.101Z,16.58
2023-01-19T06:16:48.073Z,15.77
2023-01-19T06:18:51.089Z,12.98
2023-01-19T06:20:58.549Z,18.48
2023-01-19T06:23:02.129Z,18.67
2023-01-19T06:25:05.762Z,20.27
2023-01-19T06:27:09.193Z,18.60
2023-01-19T06:29:14.517Z,17.27
2023-01-19T06:31:17.547Z,19.15
2023-01-19T06:33:21.055Z,22.00
2023-01-19T06:35:24.048Z,32.78
2023-01-19T06:37:28.574Z,31.25
2023-01-19T06:39:31.833Z,22.85
2023-01-19T06:41:35.118Z,18.92
2023-01-19T06:43:38.095Z,18.85
2023-01-19T06:45:44.556Z,18.17
2023-01-19T06:47:48.554Z,19.95
2023-01-19T06:49:51.643Z,15.80
2023-01-19T06:51:54.639Z,18.80
2023-01-19T06:53:57.767Z,17.40
2023-01-19T06:56:01.787Z,18.13
2023-01-19T06:58:05.502Z,20.23
2023-01-19T07:00:09.833Z,19.00
2023-01-19T07:02:26.178Z,22.15
2023-01-19T07:04:31.453Z,18.55
2023-01-19T07:06:34.490Z,17.63
2023-01-19T07:08:38.492Z,14.07
2023-01-19T07:11:25.849Z,20.08
2023-01-19T07:13:04.743Z,16.40
2023-01-19T07:15:09.440Z,16.42
2023-01-19T07:17:14.873Z,18.92
2023-01-19T07:19:17.871Z,22.90
2023-01-19T07:21:21.082Z,18.77
2023-01-19T07:23:24.077Z,18.25
2023-01-19T07:25:27.929Z,18.58
2023-01-19T07:27:30.903Z,22.42
2023-01-19T07:29:34.147Z,17.35
2023-01-19T07:31:37.386Z,21.35
2023-01-19T07:33:41.821Z,15.65
2023-01-19T07:35:47.514Z,17.80
2023-01-19T07:37:50.634Z,16.45
2023-01-19T07:39:54.175Z,16.67
2023-01-19T07:41:57.414Z,18.48
2023-01-19T07:44:00.675Z,14.25
2023-01-19T07:46:05.721Z,16.35
2023-01-19T07:48:08.894Z,16.65
2023-01-19T07:50:13.973Z,17.98
2023-01-19T07:52:17.052Z,15.75
2023-01-19T07:54:20.786Z,16.10
2023-01-19T07:56:24.658Z,14.30
2023-01-19T07:58:28.096Z,14.75
2023-01-19T08:00:31.554Z,15.35
2023-01-19T08:02:35.988Z,17.05
2023-01-19T08:04:39.146Z,15.13
2023-01-19T08:06:59.476Z,16.27
2023-01-19T08:09:54.659Z,20.45
2023-01-19T08:13:00.479Z,17.25
2023-01-19T08:15:25.377Z,16.05
2023-01-19T08:18:15.776Z,16.95
2023-01-19T08:20:56.374Z,17.52
2023-01-19T08:23:18.873Z,15.52
2023-01-19T08:26:03.962Z,17.80
2023-01-19T08:28:16.231Z,20.38
2023-01-19T08:30:24.312Z,19.17
2023-01-19T08:32:41.526Z,17.58
2023-01-19T08:35:05.114Z,18.10
2023-01-19T08:37:50.783Z,17.70
2023-01-19T08:42:52.586Z,14.30
2023-01-19T08:45:06.217Z,17.63
2023-01-19T08:47:52.748Z,15.13
2023-01-19T08:50:46.059Z,15.55
2023-01-19T08:52:51.461Z,14.68
2023-01-19T08:55:32.405Z,14.25
2023-01-19T08:57:38.134Z,18.52
2023-01-19T09:06:03.428Z,18.85
2023-01-19T09:08:51.709Z,20.65
2023-01-19T09:11:38.579Z,19.33
2023-01-19T09:14:28.271Z,16.20
2023-01-19T09:17:10.516Z,15.57
2023-01-19T09:19:54.631Z,14.85
2023-01-19T09:22:21.205Z,16.48
2023-01-19T09:24:30.013Z,18.10
2023-01-19T09:26:57.935Z,14.00
2023-01-19T09:29:05.015Z,13.00
2023-01-19T09:33:39.803Z,14.05
2023-01-19T09:36:14.969Z,17.08
2023-01-19T09:38:34.478Z,13.73
2023-01-19T09:40:49.317Z,15.02
2023-01-19T09:43:21.148Z,12.38
2023-01-19T09:49:34.254Z,13.30
2023-01-19T09:52:04.346Z,14.23
2023-01-19T09:54:48.436Z,12.65
2023-01-19T09:57:03.395Z,14.10
2023-01-19T10:03:24.187Z,15.65
2023-01-19T10:06:03.839Z,14.27
2023-01-19T10:11:59.120Z,15.23
2023-01-19T10:14:33.963Z,13.27
2023-01-19T10:19:35.038Z,12.07
2023-01-19T10:22:33.723Z,11.93
2023-01-19T10:25:04.539Z,12.70
2023-01-19T10:28:28.733Z,12.95
2023-01-19T10:30:31.764Z,11.43
2023-01-19T10:32:40.970Z,10.15
2023-01-19T10:38:43.597Z,9.98
2023-01-19T10:41:46.264Z,11.25
2023-01-19T10:48:09.612Z,11.60
2023-01-19T10:57:37.430Z,13.55
2023-01-19T11:00:44.318Z,9.68
2023-01-19T11:03:22.336Z,10.82
2023-01-19T11:14:11.844Z,11.82
2023-01-19T11:20:52.632Z,9.70
2023-01-19T11:23:17.950Z,10.75
2023-01-19T11:49:52.528Z,10.80
2023-01-19T11:52:22.464Z,13.30
2023-01-19T11:58:02.623Z,12.73
2023-01-19T12:00:55.515Z,20.50
2023-01-19T12:09:41.299Z,25.35
2023-01-19T12:11:54.580Z,9.27
2023-01-19T12:14:12.557Z,8.55
2023-01-19T12:16:26.599Z,10.27
2023-01-19T12:19:00.164Z,9.55
2023-01-19T12:21:15.708Z,9.10
2023-01-19T12:23:49.573Z,8.63
2023-01-19T12:29:23.991Z,7.63
2023-01-19T12:32:18.232Z,7.60
2023-01-19T12:34:51.335Z,23.33
2023-01-19T12:41:34.253Z,8.23
2023-01-19T12:44:28.355Z,10.40
2023-01-19T12:46:32.197Z,8.60
2023-01-19T12:49:12.555Z,9.93
2023-01-19T12:51:27.417Z,12.18
2023-01-19T13:01:27.801Z,9.95
2023-01-19T13:07:17.961Z,11.15
2023-01-19T13:13:23.677Z,13.05
2023-01-19T13:15:44.887Z,16.50
2023-01-19T13:17:55.673Z,13.27
2023-01-19T13:20:36.856Z,14.40
2023-01-19T13:23:26.350Z,16.35
2023-01-19T13:31:06.167Z,15.35
2023-01-19T13:33:56.174Z,14.05
2023-01-19T13:36:30.736Z,12.52
2023-01-19T13:39:28.385Z,15.75
2023-01-19T13:41:41.183Z,10.93
2023-01-19T13:47:30.681Z,12.68
2023-01-19T13:50:07.251Z,11.70
2023-01-19T13:52:58.016Z,12.23
2023-01-19T13:58:03.119Z,11.45
2023-01-19T14:00:35.919Z,12.48
2023-01-19T14:03:22.760Z,9.95
2023-01-19T14:05:38.981Z,12.02
2023-01-19T14:08:19.389Z,12.52
2023-01-19T14:10:31.247Z,12.27
2023-01-19T14:13:10.693Z,9.98
2023-01-19T14:15:56.696Z,11.95
2023-01-19T14:18:12.084Z,11.88
2023-01-19T14:20:56.416Z,55.78
2023-01-19T14:23:59.775Z,16.25
2023-01-19T14:26:51.799Z,9.60
2023-01-19T14:33:41.551Z,28.23
2023-01-19T14:35:44.801Z,49.50
2023-01-19T14:38:39.462Z,30.85
2023-01-19T14:40:43.068Z,18.23
2023-01-19T14:42:49.358Z,10.45
2023-01-19T14:44:53.683Z,10.25
2023-01-19T14:46:58.190Z,11.55
2023-01-19T14:49:04.725Z,13.38
2023-01-19T14:51:08.032Z,11.60
2023-01-19T14:53:18.015Z,10.20
2023-01-19T14:55:24.927Z,13.48
2023-01-19T14:57:28.139Z,14.80
2023-01-19T14:59:31.326Z,13.98
2023-01-19T15:01:34.675Z,11.23
2023-01-19T15:03:44.644Z,14.30
2023-01-19T15:05:50.716Z,11.10
2023-01-19T15:07:53.834Z,12.32
2023-01-19T15:09:56.839Z,10.50
2023-01-19T15:12:00.458Z,10.23
2023-01-19T15:14:03.769Z,13.25
2023-01-19T15:16:08.867Z,13.95
2023-01-19T15:18:16.091Z,12.38
2023-01-19T15:20:21.191Z,10.70
2023-01-19T15:22:29.888Z,9.07
2023-01-19T15:24:32.933Z,30.23
2023-01-19T15:30:08.724Z,15.88
2023-01-19T15:32:24.815Z,12.57
2023-01-19T15:34:38.887Z,10.77
2023-01-19T15:37:08.353Z,9.60
2023-01-19T15:39:57.417Z,66.70
2023-01-19T15:45:12.815Z,30.92
2023-01-19T15:47:39.502Z,21.50
2023-01-19T15:49:56.604Z,43.55
2023-01-19T15:52:15.376Z,46.80
2023-01-19T15:57:08.144Z,129.40
2023-01-19T15:59:16.835Z,257.00
2023-01-19T16:01:59.233Z,144.20
2023-01-19T16:04:34.456Z,73.55
2023-01-19T16:07:07.571Z,42.03
2023-01-19T16:09:31.938Z,36.20
2023-01-19T16:11:42.620Z,35.92
2023-01-19T16:14:26.978Z,20.67
2023-01-19T16:19:36.410Z,12.85
2023-01-19T16:22:14.094Z,39.80
2023-01-19T16:24:31.525Z,29.23
2023-01-19T16:26:51.104Z,25.55
2023-01-19T16:29:20.525Z,24.98
2023-01-19T16:31:55.914Z,22.55
2023-01-19T16:34:22.808Z,19.23
2023-01-19T16:36:48.945Z,17.58
2023-01-19T16:39:04.588Z,19.15
2023-01-19T16:44:38.442Z,12.98
2023-01-19T16:46:54.699Z,12.40
2023-01-19T16:49:15.387Z,12.60
2023-01-19T16:51:57.967Z,13.07
2023-01-19T16:59:39.730Z,12.52
2023-01-19T17:02:28.273Z,10.95
2023-01-19T17:04:48.582Z,13.23
2023-01-19T17:10:01.734Z,13.45
2023-01-19T17:12:10.753Z,13.70
2023-01-19T17:14:23.932Z,15.93
2023-01-19T17:16:31.014Z,14.25
2023-01-19T17:18:42.690Z,14.75
2023-01-19T17:20:48.538Z,17.83
2023-01-19T17:23:08.264Z,13.38
2023-01-19T17:25:32.975Z,14.93
2023-01-19T17:27:42.734Z,20.80
2023-01-19T17:29:55.522Z,17.00
2023-01-19T17:35:10.452Z,14.90
2023-01-19T17:37:30.035Z,12.07
2023-01-19T17:39:59.581Z,22.80
2023-01-19T17:42:08.440Z,23.38
2023-01-19T17:44:12.217Z,19.48
2023-01-19T17:46:56.333Z,19.08
2023-01-19T17:49:16.354Z,24.65
2023-01-19T17:55:17.957Z,47.60
2023-01-19T17:57:30.110Z,62.13
2023-01-19T17:59:43.810Z,41.38
2023-01-19T18:02:13.878Z,17.00
2023-01-19T18:06:54.084Z,34.28
2023-01-19T18:09:06.420Z,32.58
2023-01-19T18:11:22.081Z,25.95
2023-01-19T18:13:28.976Z,18.23
2023-01-19T18:15:38.278Z,17.45
2023-01-19T18:17:44.632Z,15.77
2023-01-19T18:19:55.633Z,16.92
2023-01-19T18:22:00.122Z,21.95
2023-01-19T18:24:19.529Z,19.75
2023-01-19T18:26:36.804Z,17.08
2023-01-19T18:28:43.265Z,19.52
2023-01-19T18:30:53.545Z,24.50
2023-01-19T18:33:11.140Z,23.30
2023-01-19T18:35:36.177Z,15.50
2023-01-19T18:37:42.364Z,16.60
2023-01-19T18:40:11.683Z,16.33
2023-01-19T18:42:59.165Z,15.50
2023-01-19T18:45:08.119Z,14.98
2023-01-19T18:51:51.151Z,15.50
2023-01-19T18:54:00.803Z,17.88
2023-01-19T19:00:56.608Z,18.67
2023-01-19T19:03:16.448Z,21.30
2023-01-19T19:05:22.538Z,23.25
2023-01-19T19:12:11.354Z,31.98
2023-01-19T19:19:02.167Z,43.38
2023-01-19T19:21:33.271Z,33.97
2023-01-19T19:23:38.974Z,182.43
2023-01-19T19:33:13.675Z,35.92
2023-01-19T19:40:07.420Z,33.60
2023-01-19T19:42:15.083Z,40.60
2023-01-19T19:53:07.122Z,30.70
2023-01-19T20:04:33.718Z,26.17
2023-01-19T20:07:09.144Z,27.48
2023-01-19T20:13:21.075Z,95.35
2023-01-19T20:19:59.526Z,32.97
2023-01-19T20:22:31.675Z,28.65
2023-01-19T20:29:59.912Z,33.70
2023-01-19T20:32:10.656Z,30.17
2023-01-19T20:34:33.930Z,26.95
2023-01-19T20:36:37.451Z,31.75
2023-01-19T20:43:17.769Z,32.85
2023-01-19T20:53:53.177Z,39.53
2023-01-19T21:01:31.309Z,39.17
2023-01-19T21:12:03.632Z,31.60
2023-01-19T21:14:10.951Z,27.17
2023-01-19T21:16:19.194Z,24.77
2023-01-19T21:23:21.260Z,38.97
2023-01-19T21:29:58.807Z,35.20
2023-01-19T21:32:08.253Z,34.78
2023-01-19T21:34:17.846Z,30.60
2023-01-19T21:37:09.530Z,27.33
2023-01-19T21:39:22.132Z,27.02
2023-01-19T21:41:57.690Z,30.75
2023-01-19T22:00:36.251Z,19.23
2023-01-19T22:03:24.395Z,27.00
2023-01-19T22:10:16.330Z,33.80
2023-01-19T22:12:25.890Z,28.35
2023-01-19T22:19:14.590Z,95.55
2023-01-19T22:21:57.417Z,96.10
2023-01-19T22:24:09.209Z,34.40
2023-01-19T22:35:00.272Z,34.58
2023-01-19T22:37:47.992Z,38.53
2023-01-19T22:40:03.384Z,42.67
2023-01-19T22:42:18.295Z,29.17
2023-01-19T22:47:59.420Z,31.80
2023-01-19T22:50:09.897Z,37.65
2023-01-19T22:52:44.707Z,44.13
2023-01-19T22:55:10.167Z,24.95
2023-01-19T23:00:04.238Z,26.23
2023-01-19T23:02:20.751Z,23.92
2023-01-19T23:05:10.228Z,21.20
2023-01-19T23:17:15.567Z,23.05
2023-01-19T23:19:55.873Z,24.60
2023-01-19T23:22:53.248Z,24.92
2023-01-19T23:29:25.960Z,26.10
2023-01-19T23:35:13.372Z,25.65
2023-01-19T23:37:33.652Z,23.17
2023-01-19T23:46:15.804Z,24.45
